• Join FlightAware (Why Join?)
  • Login
  • US Flag 
Gobble Gobble! 
04:50AM EST


 

Airport Tracker/Info


-or-


 

Live Flight TrackerFlight Track Log ✈ EJA929 ✈ 08-Oct-2013 ✈ KHDN - KAPA

Flight Track Log - Related Links

Times and Time Zones

All times are in EDT time to prevent confusion due to time zone crossing. See the EJA929 flight status page for this flight to view local times or setup timezone preferences in your user account.

Time Position Orientation Groundspeed Altitude Reporting Facility
EDT Latitude Longitude Course Direction KTS MPH feet Rate Location/Type
08:42AM 40.4461 -107.1844 140° Southeast 159 183 9,200  Level Denver Center
08:43AM 40.3853 -107.1453 154° Southeast 224 258 13,300 3,720 Climbing Denver Center
08:44AM 40.3433 -107.0533 121° Southeast 296 341 16,800 1,740 Climbing Denver Center
08:45AM 40.3087 -106.7545 166° South  Level Estimated
08:45AM 40.3394 -106.9289 92° East 353 406 16,900  Level Denver Center
08:46AM 40.2307 -106.7661 186° South  Level FlightAware Approximate
08:46AM 40.3333 -106.7642 93° East 415 478 16,900  Level Denver Center
08:47AM 40.3008 -106.6006 105° East 456 525 16,900  Level Denver Center
08:48AM 40.2394 -106.4508 118° Southeast 463 533 16,900 60 Level Denver Center
08:49AM 40.1786 -106.3014 118° Southeast 463 533 17,100  Climbing Denver Center
08:50AM 40.1200 -106.1564 118° Southeast 454 522 16,900 -120 Descending Denver Center
08:51AM 40.0661 -106.0264 118° Southeast 451 519 16,900 60 Level Denver Center
08:52AM 39.9961 -105.8567 118° Southeast 446 513 17,100 -360 Climbing Denver Center
08:53AM 39.9386 -105.7147 118° Southeast 445 512 16,200 -600 Descending Denver Center
08:54AM 39.8772 -105.5708 119° Southeast 452 520 16,000 -600 Descending Denver Center
08:55AM 39.8489 -105.4289 105° East 416 479 15,100 -1,380 Descending Denver Center
08:56AM 39.8322 -105.2883 99° East 402 463 13,300 -1,800 Descending Denver Center
08:57AM 39.8175 -105.1558 98° East 386 444 11,500 -1,680 Descending Denver Center
08:58AM 39.7736 -105.0622 121° Southeast 331 381 9,900 -1,560 Descending Denver Center
08:59AM 39.7303 -104.9825 125° Southeast 294 338 8,400 -1,140 Descending Denver Center
09:00AM 39.6900 -104.9122 127° Southeast 267 307 7,700 -780 Descending Denver Center
09:01AM 39.6514 -104.8544 131° Southeast 230 265 6,900 -720 Descending Denver Center
09:02AM 39.6103 -104.8531 179° South 175 201 6,300 -540 Descending Denver Center
09:03AM 39.5692 -104.8517 179° South 136 157 5,900 -420 Descending Denver Center
09:05AM 39.5701 -104.8493 140° Southeast  Level Estimated
09:12AM 39.5701 -104.8493 140° Southeast  Level Estimated